Time;durP1;ratioP1;P1;durP2;ratioP2;P2;SDS_P1;SDS_P2;PMS_P1;PMS_P2;Temp;Humidity;BMP_temperature;BMP_pressure;BME280_temperature;BME280_humidity;BME280_pressure;Samples;Min_cycle;Max_cycle;Signal;HPM_P1;HPM_P2
2023/06/09 00:01:25;;;;;;;12.67;7.30;;;;;;;18.61;55.84;95887.34;4987339;28;20177;-71
2023/06/09 00:03:52;;;;;;;9.10;8.30;;;;;;;18.61;55.94;95883.81;4987120;28;20258;-71
2023/06/09 00:06:22;;;;;;;11.43;8.50;;;;;;;18.50;56.42;95890.03;4986074;28;20177;-71
2023/06/09 00:08:51;;;;;;;11.00;7.27;;;;;;;18.40;56.44;95897.94;4987305;28;20416;-71
2023/06/09 00:11:17;;;;;;;8.03;7.30;;;;;;;18.40;56.54;95891.75;4987139;28;20400;-69
2023/06/09 00:13:42;;;;;;;10.93;7.53;;;;;;;18.41;56.40;95891.66;4986739;28;20999;-71
2023/06/09 00:16:07;;;;;;;8.93;7.10;;;;;;;18.30;56.58;95889.03;4987100;28;20541;-71
2023/06/09 00:18:34;;;;;;;10.60;6.97;;;;;;;18.33;56.82;95886.13;4987287;28;20183;-71
2023/06/09 00:21:00;;;;;;;7.30;6.60;;;;;;;18.39;56.19;95880.28;4987119;28;20181;-73
2023/06/09 00:23:28;;;;;;;7.00;6.40;;;;;;;18.38;56.21;95883.94;4986843;28;20963;-71
2023/06/09 00:25:54;;;;;;;8.37;7.60;;;;;;;18.39;56.23;95882.94;4987118;28;20412;-70
2023/06/09 00:28:19;;;;;;;11.30;7.60;;;;;;;18.13;56.81;95876.31;4987379;28;20404;-72
2023/06/09 00:30:45;;;;;;;12.70;7.60;;;;;;;18.27;56.58;95881.31;4987069;28;20192;-70
2023/06/09 00:33:10;;;;;;;8.97;8.10;;;;;;;18.42;56.42;95884.50;4987506;28;20200;-71
2023/06/09 00:35:36;;;;;;;10.53;8.00;;;;;;;18.29;56.40;95881.22;4986923;28;20169;-72
2023/06/09 00:38:01;;;;;;;12.03;8.50;;;;;;;18.38;56.50;95883.09;4987260;28;20288;-71
2023/06/09 00:40:27;;;;;;;8.23;7.43;;;;;;;18.32;56.56;95868.50;4987049;28;20192;-69
2023/06/09 00:42:52;;;;;;;25.57;9.37;;;;;;;18.19;56.85;95873.16;4987167;28;20800;-71
2023/06/09 00:45:18;;;;;;;18.43;8.77;;;;;;;18.24;56.99;95865.66;4986884;28;20177;-69
2023/06/09 00:47:44;;;;;;;12.17;7.70;;;;;;;18.27;56.79;95861.91;4989549;28;20176;-71
2023/06/09 00:50:12;;;;;;;13.50;8.07;;;;;;;18.23;57.00;95874.56;4990973;28;20275;-70
2023/06/09 00:52:38;;;;;;;8.27;7.43;;;;;;;18.18;56.57;95879.44;4990753;28;20895;-71
2023/06/09 00:55:04;;;;;;;12.27;7.27;;;;;;;18.15;57.05;95872.56;4990487;28;20408;-70
2023/06/09 00:57:33;;;;;;;9.57;8.30;;;;;;;18.10;57.06;95865.97;4990767;28;20173;-70
2023/06/09 00:59:59;;;;;;;10.27;8.47;;;;;;;18.16;56.83;95868.91;4990697;28;20436;-71
2023/06/09 01:02:24;;;;;;;8.70;7.87;;;;;;;18.19;56.74;95875.81;4990589;28;20442;-72
2023/06/09 01:04:51;;;;;;;10.83;9.07;;;;;;;18.19;56.64;95871.34;4990274;28;20177;-71
2023/06/09 01:07:41;;;;;;;8.53;7.67;;;;;;;18.27;56.64;95872.53;4992258;28;20275;-71
2023/06/09 01:10:22;;;;;;;8.97;8.07;;;;;;;18.15;56.54;95864.59;5012102;28;20432;-69
2023/06/09 01:13:03;;;;;;;11.63;8.43;;;;;;;18.05;57.16;95857.50;5003243;28;20476;-71
2023/06/09 01:15:35;;;;;;;8.53;7.77;;;;;;;17.96;56.89;95857.31;4998541;28;20431;-72
2023/06/09 01:18:04;;;;;;;9.50;8.43;;;;;;;17.81;57.40;95860.34;4996644;28;20442;-71
2023/06/09 01:20:45;;;;;;;9.63;8.73;;;;;;;17.78;58.04;95867.56;4991160;28;20485;-70
2023/06/09 01:23:36;;;;;;;8.93;8.10;;;;;;;17.82;57.72;95860.25;4990052;28;20841;-70
2023/06/09 01:26:03;;;;;;;9.17;8.30;;;;;;;17.84;57.71;95865.44;4988673;28;20435;-70
2023/06/09 01:28:29;;;;;;;20.90;9.50;;;;;;;17.81;57.66;95863.88;4990005;28;20420;-70
2023/06/09 01:30:56;;;;;;;22.80;10.10;;;;;;;17.60;57.96;95868.22;4989885;28;20416;-70
2023/06/09 01:33:24;;;;;;;28.17;10.67;;;;;;;17.67;57.78;95859.66;4989481;28;20451;-70
2023/06/09 01:35:51;;;;;;;23.80;10.57;;;;;;;17.66;58.34;95879.19;4989655;28;20419;-70
2023/06/09 01:38:20;;;;;;;10.90;9.80;;;;;;;17.11;59.29;95887.06;4989640;28;20427;-70
2023/06/09 01:40:46;;;;;;;9.97;9.17;;;;;;;16.89;60.47;95895.84;4989399;28;20498;-71
2023/06/09 01:43:12;;;;;;;10.20;9.30;;;;;;;16.49;61.39;95898.84;4989635;28;20431;-70
2023/06/09 01:45:37;;;;;;;10.53;9.43;;;;;;;16.44;62.50;95901.00;4989638;28;20959;-71
2023/06/09 01:48:46;;;;;;;10.03;9.13;;;;;;;16.24;63.51;95899.00;4989675;28;20173;-71
2023/06/09 01:51:21;;;;;;;12.23;9.70;;;;;;;16.40;62.83;95899.56;4988488;28;20196;-71
2023/06/09 01:53:54;;;;;;;11.40;10.13;;;;;;;16.17;64.17;95906.56;4989158;28;20455;-71
2023/06/09 01:56:22;;;;;;;12.60;9.93;;;;;;;16.18;64.42;95902.97;4989817;28;20832;-69
2023/06/09 01:58:53;;;;;;;11.70;10.50;;;;;;;15.96;65.20;95905.50;4989054;28;20511;-72
2023/06/09 02:01:21;;;;;;;12.50;10.33;;;;;;;15.74;65.83;95909.69;4989568;28;20484;-69
2023/06/09 02:03:49;;;;;;;12.40;11.20;;;;;;;16.02;65.03;95894.47;4989394;28;20511;-70
2023/06/09 02:06:17;;;;;;;10.87;9.77;;;;;;;15.91;65.21;95910.28;4989507;28;20404;-71
2023/06/09 02:08:43;;;;;;;21.20;13.23;;;;;;;16.20;64.36;95901.03;4989269;28;20511;-70
2023/06/09 02:11:10;;;;;;;11.63;10.40;;;;;;;16.30;63.80;95903.84;4989378;28;20425;-70
2023/06/09 02:13:35;;;;;;;12.73;10.83;;;;;;;16.49;63.21;95896.22;4989089;28;20529;-70
2023/06/09 02:16:01;;;;;;;39.07;12.60;;;;;;;16.49;62.93;95898.84;4989202;28;21238;-72
2023/06/09 02:18:26;;;;;;;10.87;9.87;;;;;;;15.96;63.99;95911.63;4989172;28;20177;-70
2023/06/09 02:20:52;;;;;;;16.53;10.70;;;;;;;16.12;63.74;95905.22;4989132;28;20542;-70
2023/06/09 02:23:19;;;;;;;29.47;11.87;;;;;;;16.25;63.22;95898.91;4988689;28;20168;-71
2023/06/09 02:25:45;;;;;;;17.97;9.60;;;;;;;15.81;64.39;95902.16;4988726;28;20219;-70
2023/06/09 02:28:11;;;;;;;11.37;10.37;;;;;;;16.23;62.60;95894.69;4988844;28;20444;-71
2023/06/09 02:30:36;;;;;;;10.23;9.33;;;;;;;16.01;63.20;95901.53;4988659;28;20303;-71
2023/06/09 02:33:02;;;;;;;10.83;9.73;;;;;;;15.70;64.67;95905.59;4989117;28;20460;-69
2023/06/09 02:35:29;;;;;;;10.33;8.43;;;;;;;15.73;64.34;95904.50;4994896;28;20744;-69
2023/06/09 02:37:57;;;;;;;9.60;8.70;;;;;;;16.17;62.63;95908.38;4988793;28;20169;-70
2023/06/09 02:40:23;;;;;;;57.20;15.03;;;;;;;15.91;63.58;95912.94;4988564;28;20466;-71
2023/06/09 02:42:49;;;;;;;11.73;10.10;;;;;;;16.16;62.40;95907.53;4988698;28;20420;-70
2023/06/09 02:45:14;;;;;;;12.43;9.00;;;;;;;16.13;62.74;95907.72;4988640;28;20411;-70
2023/06/09 02:47:40;;;;;;;13.20;9.03;;;;;;;16.21;62.42;95907.19;4988615;28;20611;-70
2023/06/09 02:50:06;;;;;;;12.93;8.80;;;;;;;16.42;61.62;95904.75;4988730;28;20227;-72
2023/06/09 02:52:32;;;;;;;9.80;8.80;;;;;;;16.48;61.26;95910.41;4988589;28;20424;-71
2023/06/09 02:54:58;;;;;;;16.20;10.17;;;;;;;16.27;61.98;95915.50;4988170;28;20196;-71
2023/06/09 02:57:25;;;;;;;10.00;9.07;;;;;;;16.27;61.83;95909.34;4988269;28;20412;-71
2023/06/09 02:59:51;;;;;;;15.93;9.83;;;;;;;16.12;62.23;95910.50;4988422;28;20195;-70
2023/06/09 03:02:17;;;;;;;17.13;11.50;;;;;;;16.40;61.67;95909.31;4988264;28;20416;-69
2023/06/09 03:04:42;;;;;;;9.90;8.70;;;;;;;16.23;62.09;95905.28;4987772;28;20176;-69
2023/06/09 03:07:13;;;;;;;13.13;9.10;;;;;;;16.29;61.50;95897.69;4988113;28;20177;-70
2023/06/09 03:09:45;;;;;;;10.57;8.93;;;;;;;16.26;61.83;95900.56;4987239;28;20200;-69
2023/06/09 03:12:10;;;;;;;13.37;8.63;;;;;;;16.36;61.29;95903.38;4988313;28;20412;-71
2023/06/09 03:14:36;;;;;;;18.83;9.07;;;;;;;16.34;61.65;95909.75;4987859;28;20459;-71
2023/06/09 03:17:04;;;;;;;14.63;8.80;;;;;;;16.37;61.10;95904.22;4988094;28;20173;-70
2023/06/09 03:19:32;;;;;;;10.20;8.90;;;;;;;16.50;61.30;95905.84;4987836;28;20211;-71
2023/06/09 03:21:57;;;;;;;16.90;12.40;;;;;;;16.49;61.25;95909.44;4987759;28;20420;-69
2023/06/09 03:24:24;;;;;;;23.63;11.10;;;;;;;16.40;61.34;95911.94;4987735;28;20415;-71
2023/06/09 03:26:52;;;;;;;26.13;13.90;;;;;;;16.58;61.03;95913.19;4987728;28;20173;-69
2023/06/09 03:29:21;;;;;;;25.07;11.43;;;;;;;16.41;61.57;95914.47;4987594;28;20550;-70
2023/06/09 03:31:47;;;;;;;13.87;8.73;;;;;;;16.35;61.72;95909.66;4987800;28;20408;-71
2023/06/09 03:34:12;;;;;;;30.33;11.37;;;;;;;16.43;61.22;95911.72;4987234;28;20817;-71
2023/06/09 03:36:38;;;;;;;22.10;10.90;;;;;;;16.49;60.98;95917.41;4987812;28;20173;-70
2023/06/09 03:39:03;;;;;;;14.70;9.77;;;;;;;16.53;60.73;95915.34;4987437;28;20239;-71
2023/06/09 03:41:28;;;;;;;26.43;10.63;;;;;;;16.51;60.74;95910.19;4987781;28;20236;-71
2023/06/09 03:43:54;;;;;;;18.63;10.07;;;;;;;16.65;60.06;95918.88;4987331;28;20172;-71
2023/06/09 03:46:19;;;;;;;23.40;10.30;;;;;;;16.63;60.55;95908.41;4987654;28;20176;-72
2023/06/09 03:48:45;;;;;;;19.90;9.93;;;;;;;16.64;60.67;95918.03;4987814;28;20269;-71
2023/06/09 03:51:10;;;;;;;39.10;12.40;;;;;;;16.68;60.42;95914.19;4987574;28;20244;-71
2023/06/09 03:53:36;;;;;;;31.60;12.10;;;;;;;16.57;60.38;95915.97;4987258;28;20324;-71
2023/06/09 03:56:01;;;;;;;33.10;11.50;;;;;;;16.83;59.78;95919.31;4987475;28;20169;-71
2023/06/09 03:58:27;;;;;;;21.33;10.17;;;;;;;16.96;59.44;95917.44;4987544;28;20543;-72
2023/06/09 04:00:53;;;;;;;63.50;15.83;;;;;;;16.99;59.23;95917.19;4987470;28;20173;-71
2023/06/09 04:03:20;;;;;;;24.23;11.17;;;;;;;16.96;59.45;95917.44;4987549;28;20175;-71
2023/06/09 04:05:46;;;;;;;15.80;10.70;;;;;;;17.11;58.93;95921.53;4987274;28;20199;-71
2023/06/09 04:08:12;;;;;;;11.87;9.53;;;;;;;17.33;58.84;95920.69;4987358;28;20412;-70
2023/06/09 04:10:38;;;;;;;10.90;9.90;;;;;;;17.27;58.75;95917.69;4987366;28;20389;-69
2023/06/09 04:13:03;;;;;;;28.67;11.57;;;;;;;17.41;58.42;95912.16;4987207;28;20197;-72
2023/06/09 04:15:29;;;;;;;18.80;10.63;;;;;;;17.60;57.39;95908.88;4987206;28;20474;-70
2023/06/09 04:17:55;;;;;;;15.20;10.37;;;;;;;17.78;57.31;95914.50;4987369;28;20260;-71
2023/06/09 04:20:22;;;;;;;36.30;11.90;;;;;;;17.84;56.67;95914.06;4987002;28;20196;-71
2023/06/09 04:22:51;;;;;;;15.07;9.43;;;;;;;18.00;56.45;95918.97;4986977;28;20618;-71
2023/06/09 04:25:17;;;;;;;23.23;9.70;;;;;;;17.85;56.97;95922.84;4987010;28;20458;-71
2023/06/09 04:27:43;;;;;;;11.60;8.90;;;;;;;18.15;55.52;95923.03;4987351;28;20968;-71
2023/06/09 04:30:11;;;;;;;10.57;8.40;;;;;;;18.19;55.53;95920.97;4987107;28;20460;-71
2023/06/09 04:32:37;;;;;;;9.10;8.17;;;;;;;17.72;56.65;95926.47;4987386;28;20176;-72
2023/06/09 04:35:03;;;;;;;16.70;10.10;;;;;;;17.59;57.07;95927.56;4986647;28;20455;-70
2023/06/09 04:37:29;;;;;;;15.00;8.43;;;;;;;17.66;56.33;95924.28;4987179;28;20169;-71
2023/06/09 04:39:55;;;;;;;23.50;10.40;;;;;;;17.61;56.68;95930.94;4987008;28;20448;-71
2023/06/09 04:42:22;;;;;;;29.90;10.87;;;;;;;17.77;56.39;95934.06;4968008;28;20193;-71
2023/06/09 04:44:48;;;;;;;49.23;12.47;;;;;;;18.27;54.71;95925.63;4967576;28;20176;-70
2023/06/09 04:47:17;;;;;;;10.47;8.80;;;;;;;17.89;55.50;95929.59;4967511;28;21310;-70
2023/06/09 04:49:43;;;;;;;29.20;10.30;;;;;;;18.20;54.81;95935.91;4967740;28;20205;-71
2023/06/09 04:52:10;;;;;;;11.80;9.00;;;;;;;18.26;54.71;95926.59;4967627;28;20891;-71
2023/06/09 04:54:36;;;;;;;9.93;8.93;;;;;;;18.30;54.36;95926.22;4967257;28;20542;-71
2023/06/09 04:57:03;;;;;;;11.97;8.67;;;;;;;18.47;53.56;95927.47;4967519;28;20872;-70
2023/06/09 04:59:31;;;;;;;9.20;8.40;;;;;;;17.90;54.93;95932.13;4967572;28;20312;-70
2023/06/09 05:01:57;;;;;;;16.00;9.20;;;;;;;18.06;55.38;95925.59;4967538;28;20413;-71
2023/06/09 05:04:23;;;;;;;8.87;7.90;;;;;;;18.13;55.06;95929.44;4966964;28;20405;-71
2023/06/09 05:06:48;;;;;;;13.03;9.00;;;;;;;18.25;54.40;95931.06;4967360;28;20275;-70
2023/06/09 05:09:14;;;;;;;35.23;11.70;;;;;;;18.73;53.60;95929.78;4967512;28;20205;-70
2023/06/09 05:11:39;;;;;;;10.60;8.80;;;;;;;18.63;53.67;95927.03;4967499;28;20229;-71
2023/06/09 05:14:05;;;;;;;10.90;9.20;;;;;;;18.65;53.22;95930.41;4967089;28;20201;-69
2023/06/09 05:16:30;;;;;;;10.23;8.83;;;;;;;18.87;53.03;95931.31;4967660;28;20182;-71
2023/06/09 05:18:56;;;;;;;12.43;9.30;;;;;;;18.87;52.95;95926.81;4967488;28;20220;-71
2023/06/09 05:21:24;;;;;;;16.20;9.30;;;;;;;19.31;51.99;95922.19;4968407;28;20520;-71
2023/06/09 05:23:50;;;;;;;14.83;8.80;;;;;;;19.55;51.44;95932.50;4979395;28;20216;-72
2023/06/09 05:26:16;;;;;;;10.37;8.40;;;;;;;19.67;51.15;95935.91;5009304;28;20504;-72
2023/06/09 05:28:42;;;;;;;10.80;8.47;;;;;;;19.95;50.40;95934.34;4976319;28;20180;-71
2023/06/09 05:31:08;;;;;;;8.63;7.77;;;;;;;19.88;50.73;95938.53;4972547;28;20416;-71
2023/06/09 05:33:33;;;;;;;15.47;8.37;;;;;;;19.63;51.43;95939.81;4969777;28;20233;-70
2023/06/09 05:35:58;;;;;;;138.73;20.90;;;;;;;19.67;50.91;95933.25;4970994;28;20185;-70
2023/06/09 05:38:25;;;;;;;16.30;8.73;;;;;;;19.83;50.67;95932.78;4971196;28;20185;-70
2023/06/09 05:40:51;;;;;;;20.10;8.13;;;;;;;20.04;50.43;95938.03;4978565;28;20180;-71
2023/06/09 05:43:17;;;;;;;16.30;8.50;;;;;;;20.21;49.65;95931.19;4990488;28;20404;-71
2023/06/09 05:45:42;;;;;;;13.70;7.90;;;;;;;20.22;49.76;95938.19;4990535;28;20420;-71
2023/06/09 05:48:07;;;;;;;14.53;8.23;;;;;;;20.34;49.45;95925.56;4990827;28;20184;-72
2023/06/09 05:50:33;;;;;;;9.50;8.70;;;;;;;20.35;49.24;95932.59;4992306;28;20307;-72
2023/06/09 05:52:58;;;;;;;17.17;7.93;;;;;;;20.73;48.33;95937.13;4989509;28;20173;-71
2023/06/09 05:55:25;;;;;;;10.50;8.10;;;;;;;20.82;48.32;95930.94;4989885;28;20191;-72
2023/06/09 05:57:51;;;;;;;11.97;8.50;;;;;;;20.89;48.07;95933.88;4990088;28;20595;-71
2023/06/09 06:00:17;;;;;;;9.40;8.50;;;;;;;20.92;47.87;95942.44;4989912;28;20443;-71
2023/06/09 06:02:42;;;;;;;10.70;7.40;;;;;;;21.21;47.80;95941.53;4989838;28;20180;-70
2023/06/09 06:05:09;;;;;;;9.10;8.17;;;;;;;21.05;47.69;95947.47;4989211;28;20261;-71
2023/06/09 06:07:38;;;;;;;12.07;8.70;;;;;;;20.94;48.31;95942.28;4989471;28;20189;-71
2023/06/09 06:10:05;;;;;;;9.20;8.43;;;;;;;20.84;48.12;95942.31;4989726;28;20436;-70
2023/06/09 06:12:31;;;;;;;12.90;8.50;;;;;;;20.51;49.11;95938.22;4989801;28;20422;-70
2023/06/09 06:14:57;;;;;;;10.20;8.20;;;;;;;21.14;48.60;95951.09;4989203;28;20565;-70
2023/06/09 06:17:22;;;;;;;14.00;8.83;;;;;;;20.95;48.36;95943.97;4989629;28;20416;-72
2023/06/09 06:19:47;;;;;;;8.73;7.53;;;;;;;21.19;47.90;95953.34;4989710;28;20221;-70
2023/06/09 06:22:13;;;;;;;12.20;7.87;;;;;;;21.21;47.81;95952.19;4990245;28;20260;-71
2023/06/09 06:24:39;;;;;;;10.60;8.10;;;;;;;20.25;50.23;95946.75;4989173;28;20263;-72
2023/06/09 06:27:05;;;;;;;12.43;8.30;;;;;;;20.82;48.61;95940.78;4989570;28;20428;-72
2023/06/09 06:29:32;;;;;;;10.50;8.27;;;;;;;20.77;47.92;95943.03;4989149;28;20197;-71
2023/06/09 06:31:57;;;;;;;15.90;8.40;;;;;;;20.61;49.04;95944.41;4988904;28;20859;-71
2023/06/09 06:34:24;;;;;;;9.20;8.30;;;;;;;20.78;48.60;95940.19;4988807;28;20456;-72
2023/06/09 06:36:49;;;;;;;8.57;7.73;;;;;;;21.08;47.98;95952.53;4989819;28;20736;-70
2023/06/09 06:39:15;;;;;;;8.73;7.57;;;;;;;20.93;48.71;95949.47;4989759;28;20554;-71
2023/06/09 06:41:40;;;;;;;8.60;7.60;;;;;;;21.50;47.23;95949.50;4990131;28;20177;-71
2023/06/09 06:44:06;;;;;;;7.97;7.27;;;;;;;20.68;48.25;95956.22;4988724;28;20275;-70
2023/06/09 06:46:31;;;;;;;9.93;7.90;;;;;;;21.14;47.69;95962.63;4988913;28;20173;-71
2023/06/09 06:48:57;;;;;;;20.93;8.70;;;;;;;21.21;47.36;95967.38;4988969;28;20196;-71
2023/06/09 06:51:22;;;;;;;7.17;6.57;;;;;;;20.80;48.08;95964.91;4989039;28;20173;-72
2023/06/09 06:53:48;;;;;;;8.23;7.10;;;;;;;20.69;48.42;95962.38;4988374;28;20770;-70
2023/06/09 06:56:13;;;;;;;11.37;6.93;;;;;;;20.83;48.08;95958.44;4988701;28;20180;-70
2023/06/09 06:58:39;;;;;;;10.93;7.53;;;;;;;21.26;47.49;95959.78;4988832;28;20195;-72
2023/06/09 07:01:04;;;;;;;8.57;7.73;;;;;;;21.02;47.81;95955.75;4988499;28;20615;-72
2023/06/09 07:03:30;;;;;;;10.30;7.70;;;;;;;20.76;49.01;95955.50;4988770;28;20165;-73
2023/06/09 07:05:55;;;;;;;9.23;7.83;;;;;;;20.94;48.36;95960.97;4988844;28;20264;-71
2023/06/09 07:08:21;;;;;;;8.50;7.63;;;;;;;21.51;46.49;95959.19;4988961;28;20181;-70
2023/06/09 07:10:46;;;;;;;8.63;7.73;;;;;;;21.17;48.02;95972.19;4988851;28;20200;-71
2023/06/09 07:13:11;;;;;;;9.10;7.27;;;;;;;21.66;47.12;95956.91;4996681;28;20287;-72
2023/06/09 07:15:38;;;;;;;8.80;7.70;;;;;;;21.86;46.27;95967.50;5006102;28;20320;-71
2023/06/09 07:18:05;;;;;;;16.67;7.67;;;;;;;22.10;45.16;95959.75;5006732;28;20183;-71
2023/06/09 07:20:30;;;;;;;12.30;8.07;;;;;;;21.81;46.20;95964.44;4992551;28;20594;-70
2023/06/09 07:22:56;;;;;;;7.57;6.77;;;;;;;21.50;47.45;95968.19;4988516;28;20499;-70
2023/06/09 07:25:21;;;;;;;8.93;8.03;;;;;;;21.28;47.40;95965.81;4987934;28;20243;-71
2023/06/09 07:27:47;;;;;;;8.30;7.27;;;;;;;21.51;47.52;95961.84;4994984;28;20172;-71
2023/06/09 07:30:12;;;;;;;8.00;7.20;;;;;;;21.68;46.72;95970.91;4988896;28;20630;-71
2023/06/09 07:32:39;;;;;;;14.90;7.43;;;;;;;21.67;46.77;95961.25;4988554;28;20177;-71
2023/06/09 07:35:05;;;;;;;7.60;6.67;;;;;;;22.22;45.93;95957.75;4987731;28;20263;-71
2023/06/09 07:37:31;;;;;;;8.13;7.33;;;;;;;22.06;45.70;95957.53;4988563;28;20416;-71
2023/06/09 07:39:56;;;;;;;7.77;6.70;;;;;;;22.31;45.39;95961.38;4988213;28;20184;-71
2023/06/09 07:42:22;;;;;;;12.10;6.83;;;;;;;22.01;44.87;95966.00;4988262;28;20499;-72
2023/06/09 07:44:47;;;;;;;13.60;6.87;;;;;;;21.80;44.85;95968.06;4987677;28;20183;-72
2023/06/09 07:47:13;;;;;;;7.17;6.50;;;;;;;22.01;44.80;95963.31;4987993;28;20172;-71
2023/06/09 07:49:38;;;;;;;10.97;5.90;;;;;;;21.76;45.61;95959.53;4988077;28;20192;-71
2023/06/09 07:52:04;;;;;;;7.27;6.60;;;;;;;21.97;45.13;95949.44;4988016;28;20169;-72
2023/06/09 07:54:29;;;;;;;7.53;6.73;;;;;;;22.07;45.33;95959.25;4987561;28;20706;-72
2023/06/09 07:56:55;;;;;;;9.03;6.70;;;;;;;22.50;44.79;95960.41;4987009;28;20482;-71
2023/06/09 07:59:21;;;;;;;7.60;6.30;;;;;;;22.24;45.23;95949.59;4987457;28;20286;-71
2023/06/09 08:01:46;;;;;;;6.70;6.00;;;;;;;22.28;44.35;95951.81;4987301;28;20177;-70
2023/06/09 08:04:13;;;;;;;8.23;7.40;;;;;;;22.19;45.56;95953.53;4987275;28;20172;-72
2023/06/09 08:06:39;;;;;;;9.93;6.97;;;;;;;22.59;45.47;95944.28;4987667;28;20184;-71
2023/06/09 08:09:05;;;;;;;11.07;6.63;;;;;;;23.20;44.18;95945.31;4987299;28;20498;-71
2023/06/09 08:11:30;;;;;;;7.23;6.50;;;;;;;23.94;42.59;95940.38;4987513;28;20179;-71
2023/06/09 08:13:56;;;;;;;6.17;5.57;;;;;;;22.60;43.98;95950.47;4986946;28;20743;-71
2023/06/09 08:16:21;;;;;;;11.77;7.13;;;;;;;22.50;44.64;95945.19;4987004;28;20179;-71
2023/06/09 08:18:47;;;;;;;6.90;6.27;;;;;;;22.98;43.28;95951.13;4986941;28;20275;-72
2023/06/09 08:21:12;;;;;;;9.10;7.33;;;;;;;22.46;44.02;95951.00;4987074;28;20628;-70
2023/06/09 08:23:43;;;;;;;7.27;5.87;;;;;;;22.62;43.91;95953.81;4986971;28;20189;-72
2023/06/09 08:26:08;;;;;;;10.17;5.93;;;;;;;23.56;42.34;95947.88;4987461;28;20165;-69
2023/06/09 08:28:33;;;;;;;33.17;9.57;;;;;;;23.88;41.35;95946.38;4987164;28;20420;-71
2023/06/09 08:30:59;;;;;;;10.60;5.33;;;;;;;23.85;41.45;95949.38;4987306;28;20164;-70
2023/06/09 08:33:26;;;;;;;7.20;5.63;;;;;;;23.58;40.56;95934.34;4986994;28;20207;-71
2023/06/09 08:35:51;;;;;;;5.77;5.17;;;;;;;23.74;40.52;95939.81;4987036;28;20208;-70
2023/06/09 08:38:16;;;;;;;8.93;5.30;;;;;;;23.42;40.51;95949.31;4987602;28;20499;-71
2023/06/09 08:40:42;;;;;;;6.27;5.60;;;;;;;23.46;41.00;95939.13;4987639;28;20253;-71
2023/06/09 08:43:07;;;;;;;5.20;4.70;;;;;;;23.72;40.42;95930.19;4987118;28;20211;-71
2023/06/09 08:45:34;;;;;;;6.43;5.73;;;;;;;23.77;40.58;95920.72;4987472;28;20466;-71
2023/06/09 08:48:01;;;;;;;9.43;5.70;;;;;;;23.57;40.49;95924.59;4987758;28;20543;-71
2023/06/09 08:50:30;;;;;;;6.27;5.67;;;;;;;23.75;40.92;95922.72;4987032;28;20428;-71
2023/06/09 08:52:56;;;;;;;8.23;6.33;;;;;;;23.77;40.60;95912.69;4987155;28;20412;-71
2023/06/09 08:55:22;;;;;;;6.00;5.37;;;;;;;23.41;41.22;95915.50;4986738;28;20494;-71
2023/06/09 08:57:49;;;;;;;5.27;4.80;;;;;;;23.88;39.60;95915.09;4987209;28;20256;-71
2023/06/09 09:00:15;;;;;;;6.00;5.40;;;;;;;23.63;39.13;95923.97;4987193;28;20486;-71
2023/06/09 09:02:42;;;;;;;9.00;5.83;;;;;;;23.68;40.45;95918.97;4987676;28;20819;-70
2023/06/09 09:05:09;;;;;;;5.47;4.70;;;;;;;23.69;40.20;95915.28;4987313;28;20569;-71
2023/06/09 09:07:35;;;;;;;17.40;7.17;;;;;;;24.60;38.93;95914.59;4988342;28;20408;-71
2023/06/09 09:10:00;;;;;;;8.60;6.67;;;;;;;23.81;40.49;95913.19;4993245;28;20518;-71
2023/06/09 09:12:26;;;;;;;7.07;5.60;;;;;;;23.79;40.31;95926.75;5012722;28;20161;-71
2023/06/09 09:14:51;;;;;;;5.63;4.90;;;;;;;23.98;40.84;95914.13;5013101;28;20225;-70
2023/06/09 09:17:17;;;;;;;6.07;5.57;;;;;;;24.07;40.25;95913.97;5008998;28;20177;-70
2023/06/09 09:19:48;;;;;;;7.70;5.63;;;;;;;24.18;39.45;95915.50;5006068;28;20192;-70
2023/06/09 09:22:14;;;;;;;9.83;5.80;;;;;;;24.02;39.92;95927.00;5006126;28;20603;-71
2023/06/09 09:24:46;;;;;;;5.50;4.83;;;;;;;23.71;40.03;95913.28;5002690;28;20414;-71
2023/06/09 09:27:26;;;;;;;5.37;4.83;;;;;;;23.97;40.25;95915.94;5001866;28;20203;-71
2023/06/09 09:29:51;;;;;;;7.17;5.00;;;;;;;24.22;39.08;95918.72;4993726;28;20519;-70
2023/06/09 09:32:17;;;;;;;4.90;4.50;;;;;;;24.04;38.62;95918.81;4991250;28;20415;-72
2023/06/09 09:34:47;;;;;;;5.40;4.80;;;;;;;24.05;39.08;95917.81;4990559;28;20205;-69
2023/06/09 09:37:16;;;;;;;10.93;4.80;;;;;;;24.34;38.00;95911.19;4990782;28;20221;-69
2023/06/09 09:39:52;;;;;;;5.30;4.80;;;;;;;24.30;38.74;95916.88;4990299;28;20431;-70
2023/06/09 09:42:18;;;;;;;6.30;5.80;;;;;;;24.66;38.22;95905.03;4990279;28;20754;-69
2023/06/09 09:44:52;;;;;;;7.10;5.03;;;;;;;24.59;38.54;95906.72;4990204;28;20443;-70
2023/06/09 09:47:19;;;;;;;7.00;6.00;;;;;;;24.24;38.99;95904.13;4990470;28;20753;-71
2023/06/09 09:49:58;;;;;;;7.30;6.60;;;;;;;24.01;38.87;95895.03;4990215;28;20518;-71
2023/06/09 09:52:28;;;;;;;6.73;4.80;;;;;;;24.23;38.32;95891.72;4990353;28;21043;-69
2023/06/09 09:55:08;;;;;;;9.47;5.50;;;;;;;24.13;39.33;95895.56;4990059;28;20463;-70
2023/06/09 09:57:35;;;;;;;6.07;5.47;;;;;;;24.16;39.70;95889.84;4990086;28;20419;-70
2023/06/09 10:00:07;;;;;;;9.77;5.77;;;;;;;23.87;39.52;95883.91;4990392;28;20975;-70
2023/06/09 10:02:35;;;;;;;6.60;5.80;;;;;;;24.22;38.57;95887.38;4990045;28;20412;-70
2023/06/09 10:05:05;;;;;;;6.57;5.83;;;;;;;23.85;38.96;95899.31;4989851;28;20861;-72
2023/06/09 10:07:38;;;;;;;7.03;5.80;;;;;;;23.95;40.19;95884.94;4989797;28;20420;-71
2023/06/09 10:10:04;;;;;;;8.73;5.40;;;;;;;24.23;39.41;95883.66;4989746;28;20450;-69
2023/06/09 10:12:30;;;;;;;9.63;5.13;;;;;;;24.30;39.84;95881.16;4989810;28;20416;-69
2023/06/09 10:14:57;;;;;;;14.10;5.67;;;;;;;24.39;40.50;95873.97;4989628;28;20363;-70
2023/06/09 10:17:25;;;;;;;41.00;9.40;;;;;;;24.24;40.79;95884.53;4990560;28;20929;-71
2023/06/09 10:19:52;;;;;;;10.73;6.43;;;;;;;24.30;40.17;95879.31;4989556;28;20440;-70
2023/06/09 10:22:21;;;;;;;6.50;5.87;;;;;;;24.13;39.76;95876.78;4989745;28;20436;-69
2023/06/09 10:24:47;;;;;;;10.47;6.37;;;;;;;24.26;39.90;95872.63;4990098;28;20427;-70
2023/06/09 10:27:13;;;;;;;27.70;7.13;;;;;;;24.56;39.95;95869.50;4989925;28;20412;-70
2023/06/09 10:29:40;;;;;;;6.93;6.23;;;;;;;24.61;39.04;95873.34;4990213;28;20287;-71
2023/06/09 10:32:08;;;;;;;5.37;4.87;;;;;;;24.23;37.73;95880.16;4990196;28;20408;-71
2023/06/09 10:34:36;;;;;;;5.30;4.70;;;;;;;24.00;38.17;95885.28;4989109;28;20455;-71
2023/06/09 10:37:04;;;;;;;6.67;6.07;;;;;;;24.48;38.92;95889.13;4988338;28;20420;-70
2023/06/09 10:39:46;;;;;;;6.70;6.10;;;;;;;24.48;39.25;95878.38;4989784;28;20438;-70
2023/06/09 10:42:39;;;;;;;7.03;6.43;;;;;;;24.29;40.06;95883.03;4989441;28;20415;-71
2023/06/09 10:45:14;;;;;;;7.27;6.13;;;;;;;24.33;40.04;95882.69;4989037;28;20427;-70
2023/06/09 10:47:45;;;;;;;7.60;6.90;;;;;;;23.98;41.16;95887.31;4989519;28;20751;-71
2023/06/09 10:50:32;;;;;;;6.63;6.03;;;;;;;24.41;40.66;95877.34;4989476;28;20434;-70
2023/06/09 10:52:58;;;;;;;6.23;5.00;;;;;;;24.57;39.30;95877.41;4989336;28;20470;-69
2023/06/09 10:55:27;;;;;;;8.00;6.00;;;;;;;24.47;38.73;95876.69;4989243;28;20428;-71
2023/06/09 10:57:57;;;;;;;6.43;5.83;;;;;;;24.24;38.74;95880.00;4989239;28;20416;-70
2023/06/09 11:00:42;;;;;;;6.30;5.70;;;;;;;23.74;40.61;95870.16;4989681;28;20433;-70
2023/06/09 11:03:11;;;;;;;6.13;5.60;;;;;;;24.28;38.35;95867.94;4989261;28;20424;-71
2023/06/09 11:05:43;;;;;;;5.93;5.33;;;;;;;24.35;38.89;95867.25;4988884;28;20805;-71
2023/06/09 11:08:09;;;;;;;6.10;5.50;;;;;;;24.35;39.68;95856.53;4989339;28;20412;-71
2023/06/09 11:10:36;;;;;;;5.80;5.20;;;;;;;24.51;39.56;95856.59;4988961;28;20790;-71
2023/06/09 11:13:03;;;;;;;6.40;5.80;;;;;;;24.60;39.81;95858.28;4989536;28;20172;-70
2023/06/09 11:15:55;;;;;;;6.53;5.93;;;;;;;24.46;39.76;95850.84;4988807;28;20489;-70
2023/06/09 11:18:20;;;;;;;6.40;5.77;;;;;;;24.50;39.93;95853.06;4989268;28;20431;-72
2023/06/09 11:21:06;;;;;;;9.03;5.83;;;;;;;24.64;38.66;95850.75;4988979;28;20463;-71
2023/06/09 11:23:32;;;;;;;6.80;5.60;;;;;;;24.55;38.28;95855.25;4988746;28;20280;-71
2023/06/09 11:25:57;;;;;;;5.97;5.37;;;;;;;24.57;38.69;95847.88;4988609;28;20500;-71
2023/06/09 11:28:23;;;;;;;7.90;6.47;;;;;;;24.61;39.18;95837.63;4988805;28;20642;-71